sensor_id;sensor_type;location;lat;lon;timestamp;temperature;humidity
23311;DHT22;11828;51.508;18.118;2022-11-15T00:00:41;21.40;35.70
23311;DHT22;11828;51.508;18.118;2022-11-15T00:03:07;21.30;36.10
23311;DHT22;11828;51.508;18.118;2022-11-15T00:05:36;21.00;36.40
23311;DHT22;11828;51.508;18.118;2022-11-15T00:08:02;20.80;36.70
23311;DHT22;11828;51.508;18.118;2022-11-15T00:10:28;20.60;37.00
23311;DHT22;11828;51.508;18.118;2022-11-15T00:12:54;20.60;37.30
23311;DHT22;11828;51.508;18.118;2022-11-15T00:15:20;20.50;37.50
23311;DHT22;11828;51.508;18.118;2022-11-15T00:17:49;20.30;37.70
23311;DHT22;11828;51.508;18.118;2022-11-15T00:20:17;20.30;37.80
23311;DHT22;11828;51.508;18.118;2022-11-15T00:22:43;20.40;37.80
23311;DHT22;11828;51.508;18.118;2022-11-15T00:25:09;20.50;37.80
23311;DHT22;11828;51.508;18.118;2022-11-15T00:27:35;20.70;37.60
23311;DHT22;11828;51.508;18.118;2022-11-15T00:30:01;20.80;37.30
23311;DHT22;11828;51.508;18.118;2022-11-15T00:32:31;20.80;37.20
23311;DHT22;11828;51.508;18.118;2022-11-15T00:34:58;20.70;37.10
23311;DHT22;11828;51.508;18.118;2022-11-15T00:37:23;20.70;37.20
23311;DHT22;11828;51.508;18.118;2022-11-15T00:39:50;20.60;37.30
23311;DHT22;11828;51.508;18.118;2022-11-15T00:42:16;20.70;37.40
23311;DHT22;11828;51.508;18.118;2022-11-15T00:44:42;20.60;37.20
23311;DHT22;11828;51.508;18.118;2022-11-15T00:47:08;20.50;37.90
23311;DHT22;11828;51.508;18.118;2022-11-15T00:49:34;20.60;37.30
23311;DHT22;11828;51.508;18.118;2022-11-15T00:52:00;20.60;37.40
23311;DHT22;11828;51.508;18.118;2022-11-15T00:54:26;20.60;37.40
23311;DHT22;11828;51.508;18.118;2022-11-15T00:56:52;20.50;37.30
23311;DHT22;11828;51.508;18.118;2022-11-15T00:59:18;20.50;37.30
23311;DHT22;11828;51.508;18.118;2022-11-15T01:01:44;20.50;37.30
23311;DHT22;11828;51.508;18.118;2022-11-15T01:04:10;20.60;37.40
23311;DHT22;11828;51.508;18.118;2022-11-15T01:06:36;20.90;37.00
23311;DHT22;11828;51.508;18.118;2022-11-15T01:09:02;21.10;36.60
23311;DHT22;11828;51.508;18.118;2022-11-15T01:11:28;21.20;36.30
23311;DHT22;11828;51.508;18.118;2022-11-15T01:13:55;21.10;36.20
23311;DHT22;11828;51.508;18.118;2022-11-15T01:16:21;20.90;36.20
23311;DHT22;11828;51.508;18.118;2022-11-15T01:18:47;20.70;36.40
23311;DHT22;11828;51.508;18.118;2022-11-15T01:21:15;20.80;36.60
23311;DHT22;11828;51.508;18.118;2022-11-15T01:23:43;20.80;36.50
23311;DHT22;11828;51.508;18.118;2022-11-15T01:26:13;20.90;36.20
23311;DHT22;11828;51.508;18.118;2022-11-15T01:28:41;20.90;36.10
23311;DHT22;11828;51.508;18.118;2022-11-15T01:31:16;20.70;36.10
23311;DHT22;11828;51.508;18.118;2022-11-15T01:33:43;20.70;36.40
23311;DHT22;11828;51.508;18.118;2022-11-15T01:36:20;20.60;36.20
23311;DHT22;11828;51.508;18.118;2022-11-15T01:38:53;20.50;36.40
23311;DHT22;11828;51.508;18.118;2022-11-15T01:41:29;20.50;36.40
23311;DHT22;11828;51.508;18.118;2022-11-15T01:47:12;20.30;37.10
23311;DHT22;11828;51.508;18.118;2022-11-15T01:50:12;20.40;36.50
23311;DHT22;11828;51.508;18.118;2022-11-15T01:52:38;20.50;36.10
23311;DHT22;11828;51.508;18.118;2022-11-15T01:57:40;20.50;35.90
23311;DHT22;11828;51.508;18.118;2022-11-15T02:00:09;20.40;36.00
23311;DHT22;11828;51.508;18.118;2022-11-15T02:02:36;20.20;36.00
23311;DHT22;11828;51.508;18.118;2022-11-15T02:05:04;20.10;36.20
23311;DHT22;11828;51.508;18.118;2022-11-15T02:07:31;20.10;36.20
23311;DHT22;11828;51.508;18.118;2022-11-15T02:10:18;20.20;36.10
23311;DHT22;11828;51.508;18.118;2022-11-15T02:12:46;20.20;36.00
23311;DHT22;11828;51.508;18.118;2022-11-15T02:15:13;20.30;36.00
23311;DHT22;11828;51.508;18.118;2022-11-15T02:24:04;20.20;35.60
23311;DHT22;11828;51.508;18.118;2022-11-15T02:27:18;20.00;35.70
23311;DHT22;11828;51.508;18.118;2022-11-15T02:33:03;19.80;36.00
23311;DHT22;11828;51.508;18.118;2022-11-15T02:38:45;19.70;36.40
23311;DHT22;11828;51.508;18.118;2022-11-15T02:41:58;19.80;36.40
23311;DHT22;11828;51.508;18.118;2022-11-15T02:44:51;19.90;36.20
23311;DHT22;11828;51.508;18.118;2022-11-15T02:47:19;20.10;36.00
23311;DHT22;11828;51.508;18.118;2022-11-15T02:49:52;20.20;35.70
23311;DHT22;11828;51.508;18.118;2022-11-15T02:52:22;20.40;35.50
23311;DHT22;11828;51.508;18.118;2022-11-15T02:54:58;20.50;35.20
23311;DHT22;11828;51.508;18.118;2022-11-15T03:01:04;20.30;35.20
23311;DHT22;11828;51.508;18.118;2022-11-15T03:04:31;20.30;35.30
23311;DHT22;11828;51.508;18.118;2022-11-15T03:06:55;20.40;35.20
23311;DHT22;11828;51.508;18.118;2022-11-15T03:09:47;20.20;35.20
23311;DHT22;11828;51.508;18.118;2022-11-15T03:12:30;20.20;35.30
23311;DHT22;11828;51.508;18.118;2022-11-15T03:15:14;20.00;35.40
23311;DHT22;11828;51.508;18.118;2022-11-15T03:17:56;19.90;35.50
23311;DHT22;11828;51.508;18.118;2022-11-15T03:20:27;20.00;35.60
23311;DHT22;11828;51.508;18.118;2022-11-15T03:22:58;20.30;35.70
23311;DHT22;11828;51.508;18.118;2022-11-15T03:25:27;20.70;34.50
23311;DHT22;11828;51.508;18.118;2022-11-15T03:27:57;21.00;33.80
23311;DHT22;11828;51.508;18.118;2022-11-15T03:30:24;21.20;33.40
23311;DHT22;11828;51.508;18.118;2022-11-15T03:32:54;21.30;33.10
23311;DHT22;11828;51.508;18.118;2022-11-15T03:35:27;21.20;33.20
23311;DHT22;11828;51.508;18.118;2022-11-15T03:40:58;21.10;33.30
23311;DHT22;11828;51.508;18.118;2022-11-15T03:43:30;20.90;33.60
23311;DHT22;11828;51.508;18.118;2022-11-15T03:46:25;20.80;33.70
23311;DHT22;11828;51.508;18.118;2022-11-15T03:49:00;20.80;34.50
23311;DHT22;11828;51.508;18.118;2022-11-15T03:51:50;21.00;33.40
23311;DHT22;11828;51.508;18.118;2022-11-15T03:54:16;21.20;33.00
23311;DHT22;11828;51.508;18.118;2022-11-15T03:56:42;21.40;32.80
23311;DHT22;11828;51.508;18.118;2022-11-15T03:59:08;21.50;32.40
23311;DHT22;11828;51.508;18.118;2022-11-15T04:01:34;21.60;32.10
23311;DHT22;11828;51.508;18.118;2022-11-15T04:04:01;21.60;32.00
23311;DHT22;11828;51.508;18.118;2022-11-15T04:06:27;21.60;32.00
23311;DHT22;11828;51.508;18.118;2022-11-15T04:08:53;21.50;32.10
23311;DHT22;11828;51.508;18.118;2022-11-15T04:11:19;21.40;32.30
23311;DHT22;11828;51.508;18.118;2022-11-15T04:13:45;21.30;32.50
23311;DHT22;11828;51.508;18.118;2022-11-15T04:16:11;21.10;32.70
23311;DHT22;11828;51.508;18.118;2022-11-15T04:18:38;21.10;32.80
23311;DHT22;11828;51.508;18.118;2022-11-15T04:21:04;21.00;33.00
23311;DHT22;11828;51.508;18.118;2022-11-15T04:23:49;21.00;33.00
23311;DHT22;11828;51.508;18.118;2022-11-15T04:26:30;21.10;32.90
23311;DHT22;11828;51.508;18.118;2022-11-15T04:28:57;21.20;32.60
23311;DHT22;11828;51.508;18.118;2022-11-15T04:31:41;21.30;32.50
23311;DHT22;11828;51.508;18.118;2022-11-15T04:34:07;21.40;32.30
23311;DHT22;11828;51.508;18.118;2022-11-15T04:36:33;21.40;32.20
23311;DHT22;11828;51.508;18.118;2022-11-15T04:39:18;21.50;32.00
23311;DHT22;11828;51.508;18.118;2022-11-15T04:41:44;21.50;32.00
23311;DHT22;11828;51.508;18.118;2022-11-15T04:44:10;21.50;32.50
23311;DHT22;11828;51.508;18.118;2022-11-15T04:46:36;21.50;31.80
23311;DHT22;11828;51.508;18.118;2022-11-15T04:49:02;21.40;32.00
23311;DHT22;11828;51.508;18.118;2022-11-15T04:51:28;21.40;32.10
23311;DHT22;11828;51.508;18.118;2022-11-15T04:53:54;21.40;32.20
23311;DHT22;11828;51.508;18.118;2022-11-15T04:56:20;21.40;32.10
23311;DHT22;11828;51.508;18.118;2022-11-15T04:58:49;21.60;32.20
23311;DHT22;11828;51.508;18.118;2022-11-15T05:01:15;21.70;32.00
23311;DHT22;11828;51.508;18.118;2022-11-15T05:03:42;21.80;31.80
23311;DHT22;11828;51.508;18.118;2022-11-15T05:06:27;22.00;31.60
23311;DHT22;11828;51.508;18.118;2022-11-15T05:08:54;22.10;31.30
23311;DHT22;11828;51.508;18.118;2022-11-15T05:11:20;22.30;30.90
23311;DHT22;11828;51.508;18.118;2022-11-15T05:13:46;22.30;30.50
23311;DHT22;11828;51.508;18.118;2022-11-15T05:16:13;22.40;30.30
23311;DHT22;11828;51.508;18.118;2022-11-15T05:18:39;22.40;30.00
23311;DHT22;11828;51.508;18.118;2022-11-15T05:21:11;22.40;30.00
23311;DHT22;11828;51.508;18.118;2022-11-15T05:23:39;22.40;29.80
23311;DHT22;11828;51.508;18.118;2022-11-15T05:26:07;22.40;29.80
23311;DHT22;11828;51.508;18.118;2022-11-15T05:28:35;22.40;29.70
23311;DHT22;11828;51.508;18.118;2022-11-15T05:31:07;22.40;29.70
23311;DHT22;11828;51.508;18.118;2022-11-15T05:33:35;22.40;29.60
23311;DHT22;11828;51.508;18.118;2022-11-15T05:36:17;22.40;29.40
23311;DHT22;11828;51.508;18.118;2022-11-15T05:39:00;22.40;29.30
23311;DHT22;11828;51.508;18.118;2022-11-15T05:41:42;22.40;29.40
23311;DHT22;11828;51.508;18.118;2022-11-15T05:44:12;22.40;29.40
23311;DHT22;11828;51.508;18.118;2022-11-15T05:46:40;22.40;29.40
23311;DHT22;11828;51.508;18.118;2022-11-15T05:49:11;22.40;29.50
23311;DHT22;11828;51.508;18.118;2022-11-15T05:51:40;22.30;29.50
23311;DHT22;11828;51.508;18.118;2022-11-15T05:54:07;22.30;29.60
23311;DHT22;11828;51.508;18.118;2022-11-15T05:56:33;22.30;29.70
23311;DHT22;11828;51.508;18.118;2022-11-15T05:59:00;22.30;29.70
23311;DHT22;11828;51.508;18.118;2022-11-15T06:01:26;22.30;29.70
23311;DHT22;11828;51.508;18.118;2022-11-15T06:03:53;22.40;29.70
23311;DHT22;11828;51.508;18.118;2022-11-15T06:06:19;22.10;29.80
23311;DHT22;11828;51.508;18.118;2022-11-15T06:08:45;22.00;29.90
23311;DHT22;11828;51.508;18.118;2022-11-15T06:11:13;21.90;30.00
23311;DHT22;11828;51.508;18.118;2022-11-15T06:13:39;21.90;30.00
23311;DHT22;11828;51.508;18.118;2022-11-15T06:16:05;21.80;30.20
23311;DHT22;11828;51.508;18.118;2022-11-15T06:18:32;21.80;30.20
23311;DHT22;11828;51.508;18.118;2022-11-15T06:20:59;21.70;30.10
23311;DHT22;11828;51.508;18.118;2022-11-15T06:23:27;21.60;30.30
23311;DHT22;11828;51.508;18.118;2022-11-15T06:25:53;21.60;30.40
23311;DHT22;11828;51.508;18.118;2022-11-15T06:28:19;21.60;30.60
23311;DHT22;11828;51.508;18.118;2022-11-15T06:30:45;21.70;30.60
23311;DHT22;11828;51.508;18.118;2022-11-15T06:33:12;21.80;30.60
23311;DHT22;11828;51.508;18.118;2022-11-15T06:35:38;21.90;30.40
23311;DHT22;11828;51.508;18.118;2022-11-15T06:38:06;21.70;30.50
23311;DHT22;11828;51.508;18.118;2022-11-15T06:40:35;21.70;31.20
23311;DHT22;11828;51.508;18.118;2022-11-15T06:43:03;21.80;30.60
23311;DHT22;11828;51.508;18.118;2022-11-15T06:45:30;21.90;30.50
23311;DHT22;11828;51.508;18.118;2022-11-15T06:47:57;22.00;30.30
23311;DHT22;11828;51.508;18.118;2022-11-15T06:50:23;22.10;30.20
23311;DHT22;11828;51.508;18.118;2022-11-15T06:52:50;22.30;30.20
23311;DHT22;11828;51.508;18.118;2022-11-15T06:55:16;22.50;30.00
23311;DHT22;11828;51.508;18.118;2022-11-15T06:57:50;22.50;29.80
23311;DHT22;11828;51.508;18.118;2022-11-15T07:00:19;22.60;29.70
23311;DHT22;11828;51.508;18.118;2022-11-15T07:02:46;22.70;29.60
23311;DHT22;11828;51.508;18.118;2022-11-15T07:05:13;22.60;29.60
23311;DHT22;11828;51.508;18.118;2022-11-15T07:07:40;22.70;29.70
23311;DHT22;11828;51.508;18.118;2022-11-15T07:10:07;22.70;29.70
23311;DHT22;11828;51.508;18.118;2022-11-15T07:12:34;22.70;29.80
23311;DHT22;11828;51.508;18.118;2022-11-15T07:15:00;22.70;29.80
23311;DHT22;11828;51.508;18.118;2022-11-15T07:17:26;22.60;30.00
23311;DHT22;11828;51.508;18.118;2022-11-15T07:19:52;22.60;30.00
23311;DHT22;11828;51.508;18.118;2022-11-15T07:22:18;22.70;30.00
23311;DHT22;11828;51.508;18.118;2022-11-15T07:24:44;22.80;29.80
23311;DHT22;11828;51.508;18.118;2022-11-15T07:27:11;23.10;29.80
23311;DHT22;11828;51.508;18.118;2022-11-15T07:29:37;23.10;29.70
23311;DHT22;11828;51.508;18.118;2022-11-15T07:32:03;23.20;29.50
23311;DHT22;11828;51.508;18.118;2022-11-15T07:34:29;23.40;29.60
23311;DHT22;11828;51.508;18.118;2022-11-15T07:36:55;23.50;29.40
23311;DHT22;11828;51.508;18.118;2022-11-15T07:39:21;23.40;29.40
23311;DHT22;11828;51.508;18.118;2022-11-15T07:41:47;23.60;29.30
23311;DHT22;11828;51.508;18.118;2022-11-15T07:44:15;23.90;29.00
23311;DHT22;11828;51.508;18.118;2022-11-15T07:46:41;23.90;29.00
23311;DHT22;11828;51.508;18.118;2022-11-15T07:49:07;23.70;29.00
23311;DHT22;11828;51.508;18.118;2022-11-15T07:51:33;23.70;29.20
23311;DHT22;11828;51.508;18.118;2022-11-15T07:53:59;23.80;29.30
23311;DHT22;11828;51.508;18.118;2022-11-15T07:56:26;24.10;29.10
23311;DHT22;11828;51.508;18.118;2022-11-15T07:58:53;24.40;28.90
23311;DHT22;11828;51.508;18.118;2022-11-15T08:01:20;24.80;28.60
23311;DHT22;11828;51.508;18.118;2022-11-15T08:03:45;25.10;28.10
23311;DHT22;11828;51.508;18.118;2022-11-15T08:06:12;25.20;27.90
23311;DHT22;11828;51.508;18.118;2022-11-15T08:08:38;25.40;27.80
23311;DHT22;11828;51.508;18.118;2022-11-15T08:11:04;25.50;27.70
23311;DHT22;11828;51.508;18.118;2022-11-15T08:13:30;25.70;27.70
23311;DHT22;11828;51.508;18.118;2022-11-15T08:16:00;25.70;27.70
23311;DHT22;11828;51.508;18.118;2022-11-15T08:18:28;25.60;27.70
23311;DHT22;11828;51.508;18.118;2022-11-15T08:20:58;25.50;27.80
23311;DHT22;11828;51.508;18.118;2022-11-15T08:23:25;25.40;27.90
23311;DHT22;11828;51.508;18.118;2022-11-15T08:25:51;25.30;27.60
23311;DHT22;11828;51.508;18.118;2022-11-15T08:28:17;25.50;36.60
23311;DHT22;11828;51.508;18.118;2022-11-15T08:30:44;24.80;28.30
23311;DHT22;11828;51.508;18.118;2022-11-15T08:33:12;24.70;28.70
23311;DHT22;11828;51.508;18.118;2022-11-15T08:35:42;24.70;29.00
23311;DHT22;11828;51.508;18.118;2022-11-15T08:38:09;24.70;28.90
23311;DHT22;11828;51.508;18.118;2022-11-15T08:40:35;24.80;36.30
23311;DHT22;11828;51.508;18.118;2022-11-15T08:45:29;24.70;32.30
23311;DHT22;11828;51.508;18.118;2022-11-15T08:50:23;24.80;32.30
23311;DHT22;11828;51.508;18.118;2022-11-15T08:52:49;24.70;29.20
23311;DHT22;11828;51.508;18.118;2022-11-15T08:55:15;24.60;29.90
23311;DHT22;11828;51.508;18.118;2022-11-15T09:00:08;24.30;29.70
23311;DHT22;11828;51.508;18.118;2022-11-15T09:02:40;24.40;30.00
23311;DHT22;11828;51.508;18.118;2022-11-15T09:05:07;24.50;37.60
23311;DHT22;11828;51.508;18.118;2022-11-15T09:07:33;24.40;39.10
23311;DHT22;11828;51.508;18.118;2022-11-15T09:12:27;25.00;39.00
23311;DHT22;11828;51.508;18.118;2022-11-15T09:14:53;24.40;37.20
23311;DHT22;11828;51.508;18.118;2022-11-15T09:17:19;24.30;37.70
23311;DHT22;11828;51.508;18.118;2022-11-15T09:19:45;24.10;39.70
23311;DHT22;11828;51.508;18.118;2022-11-15T09:22:11;24.30;30.70
23311;DHT22;11828;51.508;18.118;2022-11-15T09:24:38;24.20;31.10
23311;DHT22;11828;51.508;18.118;2022-11-15T09:27:04;24.40;31.30
23311;DHT22;11828;51.508;18.118;2022-11-15T09:31:56;24.40;30.70
23311;DHT22;11828;51.508;18.118;2022-11-15T09:36:49;24.70;30.70
23311;DHT22;11828;51.508;18.118;2022-11-15T09:39:15;24.80;31.30
23311;DHT22;11828;51.508;18.118;2022-11-15T09:41:57;25.10;31.30
23311;DHT22;11828;51.508;18.118;2022-11-15T09:45:30;25.00;31.30
23311;DHT22;11828;51.508;18.118;2022-11-15T09:48:03;25.10;31.30
23311;DHT22;11828;51.508;18.118;2022-11-15T09:50:48;25.30;31.30
23311;DHT22;11828;51.508;18.118;2022-11-15T09:53:25;25.00;31.20
23311;DHT22;11828;51.508;18.118;2022-11-15T09:56:00;25.00;31.60
23311;DHT22;11828;51.508;18.118;2022-11-15T09:58:36;25.10;31.60
23311;DHT22;11828;51.508;18.118;2022-11-15T10:01:19;25.20;31.60
23311;DHT22;11828;51.508;18.118;2022-11-15T10:04:02;25.30;31.40
23311;DHT22;11828;51.508;18.118;2022-11-15T10:06:29;25.50;31.40
23311;DHT22;11828;51.508;18.118;2022-11-15T10:09:09;25.70;31.60
23311;DHT22;11828;51.508;18.118;2022-11-15T10:11:40;25.60;31.30
23311;DHT22;11828;51.508;18.118;2022-11-15T10:14:19;25.80;31.20
23311;DHT22;11828;51.508;18.118;2022-11-15T10:17:02;25.80;31.00
23311;DHT22;11828;51.508;18.118;2022-11-15T10:22:55;26.00;31.10
23311;DHT22;11828;51.508;18.118;2022-11-15T10:25:30;26.10;31.10
23311;DHT22;11828;51.508;18.118;2022-11-15T10:28:17;26.20;31.20
23311;DHT22;11828;51.508;18.118;2022-11-15T10:30:49;26.20;31.20
23311;DHT22;11828;51.508;18.118;2022-11-15T10:33:31;26.00;31.40
23311;DHT22;11828;51.508;18.118;2022-11-15T10:49:24;27.20;41.20
23311;DHT22;11828;51.508;18.118;2022-11-15T10:52:16;27.30;35.40
23311;DHT22;11828;51.508;18.118;2022-11-15T10:54:48;27.40;47.40
23311;DHT22;11828;51.508;18.118;2022-11-15T10:59:51;27.70;30.60
23311;DHT22;11828;51.508;18.118;2022-11-15T11:02:46;27.30;30.40
23311;DHT22;11828;51.508;18.118;2022-11-15T11:05:33;27.70;33.90
23311;DHT22;11828;51.508;18.118;2022-11-15T11:10:58;28.00;30.40
23311;DHT22;11828;51.508;18.118;2022-11-15T11:33:32;30.00;28.50
23311;DHT22;11828;51.508;18.118;2022-11-15T11:36:13;30.20;28.40
23311;DHT22;11828;51.508;18.118;2022-11-15T11:42:22;30.50;27.90
23311;DHT22;11828;51.508;18.118;2022-11-15T11:48:58;30.70;27.40
23311;DHT22;11828;51.508;18.118;2022-11-15T11:51:38;30.60;27.60
23311;DHT22;11828;51.508;18.118;2022-11-15T11:58:15;30.80;27.70
23311;DHT22;11828;51.508;18.118;2022-11-15T12:03:59;31.00;27.20
23311;DHT22;11828;51.508;18.118;2022-11-15T12:06:37;31.10;27.00
23311;DHT22;11828;51.508;18.118;2022-11-15T12:09:35;31.10;27.00
23311;DHT22;11828;51.508;18.118;2022-11-15T12:14:50;31.10;27.00
23311;DHT22;11828;51.508;18.118;2022-11-15T12:17:23;31.10;26.90
23311;DHT22;11828;51.508;18.118;2022-11-15T12:20:37;31.20;26.90
23311;DHT22;11828;51.508;18.118;2022-11-15T12:22:45;31.10;26.80
23311;DHT22;11828;51.508;18.118;2022-11-15T12:25:28;31.10;27.00
23311;DHT22;11828;51.508;18.118;2022-11-15T12:31:35;31.00;26.90
23311;DHT22;11828;51.508;18.118;2022-11-15T12:36:52;30.90;26.90
23311;DHT22;11828;51.508;18.118;2022-11-15T12:39:19;30.80;27.00
23311;DHT22;11828;51.508;18.118;2022-11-15T12:47:23;30.60;27.00
23311;DHT22;11828;51.508;18.118;2022-11-15T12:49:50;30.50;27.20
23311;DHT22;11828;51.508;18.118;2022-11-15T12:52:18;30.70;27.20
23311;DHT22;11828;51.508;18.118;2022-11-15T12:54:55;30.80;27.10
23311;DHT22;11828;51.508;18.118;2022-11-15T12:57:29;31.00;26.90
23311;DHT22;11828;51.508;18.118;2022-11-15T12:59:59;31.10;26.90
23311;DHT22;11828;51.508;18.118;2022-11-15T13:03:17;31.20;26.90
23311;DHT22;11828;51.508;18.118;2022-11-15T13:08:37;31.10;26.70
23311;DHT22;11828;51.508;18.118;2022-11-15T13:11:47;31.10;26.80
23311;DHT22;11828;51.508;18.118;2022-11-15T13:14:50;31.30;26.60
23311;DHT22;11828;51.508;18.118;2022-11-15T13:19:48;31.30;26.50
23311;DHT22;11828;51.508;18.118;2022-11-15T13:22:19;31.30;26.60
23311;DHT22;11828;51.508;18.118;2022-11-15T13:25:19;31.00;26.80
23311;DHT22;11828;51.508;18.118;2022-11-15T13:27:50;30.70;27.10
23311;DHT22;11828;51.508;18.118;2022-11-15T13:30:22;30.80;27.20
23311;DHT22;11828;51.508;18.118;2022-11-15T13:32:51;30.80;27.00
23311;DHT22;11828;51.508;18.118;2022-11-15T13:35:28;30.80;27.00
23311;DHT22;11828;51.508;18.118;2022-11-15T13:37:55;30.80;26.90
23311;DHT22;11828;51.508;18.118;2022-11-15T13:40:34;30.80;26.90
23311;DHT22;11828;51.508;18.118;2022-11-15T13:43:32;30.80;27.00
23311;DHT22;11828;51.508;18.118;2022-11-15T13:46:13;30.70;27.00
23311;DHT22;11828;51.508;18.118;2022-11-15T13:48:46;30.70;27.00
23311;DHT22;11828;51.508;18.118;2022-11-15T13:53:51;30.50;27.00
23311;DHT22;11828;51.508;18.118;2022-11-15T13:56:21;30.50;27.10
23311;DHT22;11828;51.508;18.118;2022-11-15T13:58:47;30.50;27.10
23311;DHT22;11828;51.508;18.118;2022-11-15T14:01:17;30.50;27.30
23311;DHT22;11828;51.508;18.118;2022-11-15T14:03:57;30.40;27.30
23311;DHT22;11828;51.508;18.118;2022-11-15T14:06:29;30.30;27.50
23311;DHT22;11828;51.508;18.118;2022-11-15T14:09:14;30.10;27.60
23311;DHT22;11828;51.508;18.118;2022-11-15T14:11:52;30.00;27.60
23311;DHT22;11828;51.508;18.118;2022-11-15T14:14:24;29.70;27.80
23311;DHT22;11828;51.508;18.118;2022-11-15T14:16:54;29.60;28.00
23311;DHT22;11828;51.508;18.118;2022-11-15T14:28:16;29.30;28.50
23311;DHT22;11828;51.508;18.118;2022-11-15T14:30:57;29.20;28.50
23311;DHT22;11828;51.508;18.118;2022-11-15T14:33:35;29.20;28.40
23311;DHT22;11828;51.508;18.118;2022-11-15T14:36:13;29.10;28.60
23311;DHT22;11828;51.508;18.118;2022-11-15T14:38:41;29.00;28.70
23311;DHT22;11828;51.508;18.118;2022-11-15T14:41:20;28.90;28.80
23311;DHT22;11828;51.508;18.118;2022-11-15T14:43:49;28.70;29.10
23311;DHT22;11828;51.508;18.118;2022-11-15T14:46:16;28.60;29.20
23311;DHT22;11828;51.508;18.118;2022-11-15T14:48:42;28.50;29.30
23311;DHT22;11828;51.508;18.118;2022-11-15T14:51:13;28.40;29.40
23311;DHT22;11828;51.508;18.118;2022-11-15T14:53:41;28.30;29.40
23311;DHT22;11828;51.508;18.118;2022-11-15T14:56:07;28.30;29.60
23311;DHT22;11828;51.508;18.118;2022-11-15T14:58:34;28.20;29.60
23311;DHT22;11828;51.508;18.118;2022-11-15T15:01:03;28.10;29.70
23311;DHT22;11828;51.508;18.118;2022-11-15T15:03:38;28.00;29.80
23311;DHT22;11828;51.508;18.118;2022-11-15T15:06:04;27.90;30.00
23311;DHT22;11828;51.508;18.118;2022-11-15T15:08:30;27.60;30.00
23311;DHT22;11828;51.508;18.118;2022-11-15T15:10:56;27.40;30.20
23311;DHT22;11828;51.508;18.118;2022-11-15T15:13:24;27.30;30.60
23311;DHT22;11828;51.508;18.118;2022-11-15T15:15:51;27.20;30.70
23311;DHT22;11828;51.508;18.118;2022-11-15T15:18:18;27.20;30.80
23311;DHT22;11828;51.508;18.118;2022-11-15T15:20:45;27.10;30.80
23311;DHT22;11828;51.508;18.118;2022-11-15T15:23:17;27.10;30.80
23311;DHT22;11828;51.508;18.118;2022-11-15T15:25:46;27.10;30.80
23311;DHT22;11828;51.508;18.118;2022-11-15T15:28:14;27.10;30.80
23311;DHT22;11828;51.508;18.118;2022-11-15T15:30:41;27.00;30.80
23311;DHT22;11828;51.508;18.118;2022-11-15T15:33:07;27.00;30.80
23311;DHT22;11828;51.508;18.118;2022-11-15T15:35:34;26.90;31.60
23311;DHT22;11828;51.508;18.118;2022-11-15T15:38:01;26.90;31.00
23311;DHT22;11828;51.508;18.118;2022-11-15T15:40:31;26.80;31.00
23311;DHT22;11828;51.508;18.118;2022-11-15T15:42:58;26.40;33.70
23311;DHT22;11828;51.508;18.118;2022-11-15T15:45:25;26.50;31.20
23311;DHT22;11828;51.508;18.118;2022-11-15T15:47:53;26.40;31.30
23311;DHT22;11828;51.508;18.118;2022-11-15T15:50:27;26.20;31.40
23311;DHT22;11828;51.508;18.118;2022-11-15T15:53:01;26.10;31.70
23311;DHT22;11828;51.508;18.118;2022-11-15T15:55:28;26.00;31.60
23311;DHT22;11828;51.508;18.118;2022-11-15T15:57:55;25.80;31.80
23311;DHT22;11828;51.508;18.118;2022-11-15T16:00:23;25.80;32.00
23311;DHT22;11828;51.508;18.118;2022-11-15T16:02:51;25.80;32.00
23311;DHT22;11828;51.508;18.118;2022-11-15T16:05:18;25.90;32.10
23311;DHT22;11828;51.508;18.118;2022-11-15T16:07:45;25.90;31.90
23311;DHT22;11828;51.508;18.118;2022-11-15T16:10:44;25.80;31.70
23311;DHT22;11828;51.508;18.118;2022-11-15T16:13:10;25.80;31.80
23311;DHT22;11828;51.508;18.118;2022-11-15T16:15:36;25.80;31.60
23311;DHT22;11828;51.508;18.118;2022-11-15T16:18:03;25.80;31.70
23311;DHT22;11828;51.508;18.118;2022-11-15T16:20:39;25.70;31.70
23311;DHT22;11828;51.508;18.118;2022-11-15T16:23:12;25.70;31.70
23311;DHT22;11828;51.508;18.118;2022-11-15T16:25:48;25.60;31.60
23311;DHT22;11828;51.508;18.118;2022-11-15T16:31:11;25.40;31.80
23311;DHT22;11828;51.508;18.118;2022-11-15T16:33:39;25.30;32.00
23311;DHT22;11828;51.508;18.118;2022-11-15T16:36:12;25.20;31.80
23311;DHT22;11828;51.508;18.118;2022-11-15T16:38:50;25.20;32.10
23311;DHT22;11828;51.508;18.118;2022-11-15T16:41:17;25.00;32.10
23311;DHT22;11828;51.508;18.118;2022-11-15T16:43:47;25.00;32.00
23311;DHT22;11828;51.508;18.118;2022-11-15T16:46:18;24.90;31.90
23311;DHT22;11828;51.508;18.118;2022-11-15T16:48:47;24.80;31.90
23311;DHT22;11828;51.508;18.118;2022-11-15T16:51:13;24.70;31.80
23311;DHT22;11828;51.508;18.118;2022-11-15T16:53:40;24.60;32.00
23311;DHT22;11828;51.508;18.118;2022-11-15T16:56:32;24.50;32.00
23311;DHT22;11828;51.508;18.118;2022-11-15T16:59:00;24.40;32.30
23311;DHT22;11828;51.508;18.118;2022-11-15T17:01:31;24.40;32.20
23311;DHT22;11828;51.508;18.118;2022-11-15T17:04:00;24.30;32.40
23311;DHT22;11828;51.508;18.118;2022-11-15T17:06:42;24.20;32.90
23311;DHT22;11828;51.508;18.118;2022-11-15T17:09:21;24.20;33.00
23311;DHT22;11828;51.508;18.118;2022-11-15T17:11:51;24.00;39.10
23311;DHT22;11828;51.508;18.118;2022-11-15T17:14:18;24.20;32.80
23311;DHT22;11828;51.508;18.118;2022-11-15T17:16:44;24.10;32.60
23311;DHT22;11828;51.508;18.118;2022-11-15T17:19:14;24.10;32.60
23311;DHT22;11828;51.508;18.118;2022-11-15T17:21:42;24.10;32.50
23311;DHT22;11828;51.508;18.118;2022-11-15T17:24:10;24.10;32.30
23311;DHT22;11828;51.508;18.118;2022-11-15T17:26:37;24.20;32.00
23311;DHT22;11828;51.508;18.118;2022-11-15T17:29:04;24.20;31.90
23311;DHT22;11828;51.508;18.118;2022-11-15T17:31:36;24.20;31.90
23311;DHT22;11828;51.508;18.118;2022-11-15T17:34:05;24.10;31.80
23311;DHT22;11828;51.508;18.118;2022-11-15T17:36:32;24.10;31.80
23311;DHT22;11828;51.508;18.118;2022-11-15T17:38:59;24.20;31.90
23311;DHT22;11828;51.508;18.118;2022-11-15T17:41:25;24.20;31.80
23311;DHT22;11828;51.508;18.118;2022-11-15T17:43:54;24.20;31.80
23311;DHT22;11828;51.508;18.118;2022-11-15T17:46:22;24.20;31.80
23311;DHT22;11828;51.508;18.118;2022-11-15T17:48:48;24.20;31.70
23311;DHT22;11828;51.508;18.118;2022-11-15T17:51:16;24.20;31.70